sensor_id;sensor_type;location;lat;lon;timestamp;temperature;humidity
42227;DHT22;27892;52.378;13.122;2023-06-14T00:03:30;18.70;47.00
42227;DHT22;27892;52.378;13.122;2023-06-14T00:05:57;18.70;47.20
42227;DHT22;27892;52.378;13.122;2023-06-14T00:08:23;18.70;47.40
42227;DHT22;27892;52.378;13.122;2023-06-14T00:10:51;18.70;47.10
42227;DHT22;27892;52.378;13.122;2023-06-14T00:13:16;18.70;47.20
42227;DHT22;27892;52.378;13.122;2023-06-14T00:15:42;18.70;47.50
42227;DHT22;27892;52.378;13.122;2023-06-14T00:18:08;18.60;47.80
42227;DHT22;27892;52.378;13.122;2023-06-14T00:20:37;18.50;47.80
42227;DHT22;27892;52.378;13.122;2023-06-14T00:23:02;18.50;48.00
42227;DHT22;27892;52.378;13.122;2023-06-14T00:25:28;18.40;48.30
42227;DHT22;27892;52.378;13.122;2023-06-14T00:27:54;18.30;48.20
42227;DHT22;27892;52.378;13.122;2023-06-14T00:30:20;18.30;48.60
42227;DHT22;27892;52.378;13.122;2023-06-14T00:32:46;18.20;48.90
42227;DHT22;27892;52.378;13.122;2023-06-14T00:35:13;18.20;48.90
42227;DHT22;27892;52.378;13.122;2023-06-14T00:37:39;18.10;49.50
42227;DHT22;27892;52.378;13.122;2023-06-14T00:40:05;18.10;49.20
42227;DHT22;27892;52.378;13.122;2023-06-14T00:42:31;18.10;49.40
42227;DHT22;27892;52.378;13.122;2023-06-14T00:44:57;18.10;49.40
42227;DHT22;27892;52.378;13.122;2023-06-14T00:47:23;18.10;49.30
42227;DHT22;27892;52.378;13.122;2023-06-14T00:49:53;18.10;49.40
42227;DHT22;27892;52.378;13.122;2023-06-14T00:52:20;18.10;49.40
42227;DHT22;27892;52.378;13.122;2023-06-14T00:54:46;18.10;49.20
42227;DHT22;27892;52.378;13.122;2023-06-14T00:57:12;18.10;49.10
42227;DHT22;27892;52.378;13.122;2023-06-14T00:59:43;18.00;49.30
42227;DHT22;27892;52.378;13.122;2023-06-14T01:02:10;18.00;49.70
42227;DHT22;27892;52.378;13.122;2023-06-14T01:04:36;18.00;50.50
42227;DHT22;27892;52.378;13.122;2023-06-14T01:07:11;17.90;50.00
42227;DHT22;27892;52.378;13.122;2023-06-14T01:15:23;17.90;50.20
42227;DHT22;27892;52.378;13.122;2023-06-14T01:17:49;17.90;50.50
42227;DHT22;27892;52.378;13.122;2023-06-14T01:20:18;17.80;50.60
42227;DHT22;27892;52.378;13.122;2023-06-14T01:22:52;17.90;50.80
42227;DHT22;27892;52.378;13.122;2023-06-14T01:25:21;17.80;50.60
42227;DHT22;27892;52.378;13.122;2023-06-14T01:28:00;17.80;50.70
42227;DHT22;27892;52.378;13.122;2023-06-14T01:30:29;17.80;50.90
42227;DHT22;27892;52.378;13.122;2023-06-14T01:32:56;17.80;51.00
42227;DHT22;27892;52.378;13.122;2023-06-14T01:35:23;17.80;51.20
42227;DHT22;27892;52.378;13.122;2023-06-14T01:37:50;17.80;51.30
42227;DHT22;27892;52.378;13.122;2023-06-14T01:40:18;17.70;51.40
42227;DHT22;27892;52.378;13.122;2023-06-14T01:42:46;17.70;51.50
42227;DHT22;27892;52.378;13.122;2023-06-14T01:45:12;17.80;51.60
42227;DHT22;27892;52.378;13.122;2023-06-14T01:47:38;17.70;51.70
42227;DHT22;27892;52.378;13.122;2023-06-14T01:50:04;17.70;52.00
42227;DHT22;27892;52.378;13.122;2023-06-14T01:52:30;17.70;52.00
42227;DHT22;27892;52.378;13.122;2023-06-14T01:54:56;17.70;52.30
42227;DHT22;27892;52.378;13.122;2023-06-14T01:57:24;17.70;52.40
42227;DHT22;27892;52.378;13.122;2023-06-14T01:59:50;17.80;52.50
42227;DHT22;27892;52.378;13.122;2023-06-14T02:02:16;17.70;52.20
42227;DHT22;27892;52.378;13.122;2023-06-14T02:04:42;17.70;52.40
42227;DHT22;27892;52.378;13.122;2023-06-14T02:07:08;17.70;52.40
42227;DHT22;27892;52.378;13.122;2023-06-14T02:09:34;17.70;52.40
42227;DHT22;27892;52.378;13.122;2023-06-14T02:12:00;17.70;52.60
42227;DHT22;27892;52.378;13.122;2023-06-14T02:14:26;17.60;52.60
42227;DHT22;27892;52.378;13.122;2023-06-14T02:16:52;17.60;52.80
42227;DHT22;27892;52.378;13.122;2023-06-14T02:19:19;17.60;52.90
42227;DHT22;27892;52.378;13.122;2023-06-14T02:21:46;17.60;52.90
42227;DHT22;27892;52.378;13.122;2023-06-14T02:24:12;17.60;52.90
42227;DHT22;27892;52.378;13.122;2023-06-14T02:26:39;17.50;53.60
42227;DHT22;27892;52.378;13.122;2023-06-14T02:29:11;17.40;53.70
42227;DHT22;27892;52.378;13.122;2023-06-14T02:31:38;17.40;53.30
42227;DHT22;27892;52.378;13.122;2023-06-14T02:34:04;17.40;53.40
42227;DHT22;27892;52.378;13.122;2023-06-14T02:36:30;17.40;53.40
42227;DHT22;27892;52.378;13.122;2023-06-14T02:38:56;17.40;53.40
42227;DHT22;27892;52.378;13.122;2023-06-14T02:41:26;17.40;53.50
42227;DHT22;27892;52.378;13.122;2023-06-14T02:43:52;17.30;54.20
42227;DHT22;27892;52.378;13.122;2023-06-14T02:46:18;17.30;53.90
42227;DHT22;27892;52.378;13.122;2023-06-14T02:48:44;17.30;53.90
42227;DHT22;27892;52.378;13.122;2023-06-14T02:51:10;17.30;54.00
42227;DHT22;27892;52.378;13.122;2023-06-14T02:53:36;17.30;54.20
42227;DHT22;27892;52.378;13.122;2023-06-14T02:56:02;17.20;54.50
42227;DHT22;27892;52.378;13.122;2023-06-14T02:58:29;17.20;54.80
42227;DHT22;27892;52.378;13.122;2023-06-14T03:00:55;17.20;55.00
42227;DHT22;27892;52.378;13.122;2023-06-14T03:03:21;17.20;54.90
42227;DHT22;27892;52.378;13.122;2023-06-14T03:05:48;17.30;54.80
42227;DHT22;27892;52.378;13.122;2023-06-14T03:08:15;17.30;54.80
42227;DHT22;27892;52.378;13.122;2023-06-14T03:10:48;17.40;54.70
42227;DHT22;27892;52.378;13.122;2023-06-14T03:13:17;17.40;54.90
42227;DHT22;27892;52.378;13.122;2023-06-14T03:15:46;17.30;55.40
42227;DHT22;27892;52.378;13.122;2023-06-14T03:18:13;17.30;54.80
42227;DHT22;27892;52.378;13.122;2023-06-14T03:20:40;17.30;55.00
42227;DHT22;27892;52.378;13.122;2023-06-14T03:23:06;17.30;55.00
42227;DHT22;27892;52.378;13.122;2023-06-14T03:25:32;17.30;55.10
42227;DHT22;27892;52.378;13.122;2023-06-14T03:28:01;17.30;55.10
42227;DHT22;27892;52.378;13.122;2023-06-14T03:30:27;17.30;55.20
42227;DHT22;27892;52.378;13.122;2023-06-14T03:32:53;17.20;55.90
42227;DHT22;27892;52.378;13.122;2023-06-14T03:35:21;17.20;55.50
42227;DHT22;27892;52.378;13.122;2023-06-14T03:37:47;17.30;55.70
42227;DHT22;27892;52.378;13.122;2023-06-14T03:40:15;17.30;55.60
42227;DHT22;27892;52.378;13.122;2023-06-14T03:42:40;17.40;55.50
42227;DHT22;27892;52.378;13.122;2023-06-14T03:45:06;17.40;55.70
42227;DHT22;27892;52.378;13.122;2023-06-14T03:47:33;17.40;55.70
42227;DHT22;27892;52.378;13.122;2023-06-14T03:49:59;17.40;55.70
42227;DHT22;27892;52.378;13.122;2023-06-14T03:52:26;17.40;55.70
42227;DHT22;27892;52.378;13.122;2023-06-14T03:54:52;17.50;55.80
42227;DHT22;27892;52.378;13.122;2023-06-14T03:57:18;17.50;55.70
42227;DHT22;27892;52.378;13.122;2023-06-14T03:59:44;17.50;56.00
42227;DHT22;27892;52.378;13.122;2023-06-14T04:02:09;17.60;56.00
42227;DHT22;27892;52.378;13.122;2023-06-14T04:04:36;17.60;55.80
42227;DHT22;27892;52.378;13.122;2023-06-14T04:07:02;17.60;56.20
42227;DHT22;27892;52.378;13.122;2023-06-14T04:09:31;17.70;56.30
42227;DHT22;27892;52.378;13.122;2023-06-14T04:11:57;17.80;56.20
42227;DHT22;27892;52.378;13.122;2023-06-14T04:14:22;17.80;56.20
42227;DHT22;27892;52.378;13.122;2023-06-14T04:16:49;17.90;56.00
42227;DHT22;27892;52.378;13.122;2023-06-14T04:19:15;18.00;56.20
42227;DHT22;27892;52.378;13.122;2023-06-14T04:21:41;18.10;56.00
42227;DHT22;27892;52.378;13.122;2023-06-14T04:24:07;18.20;56.00
42227;DHT22;27892;52.378;13.122;2023-06-14T04:26:42;18.30;55.80
42227;DHT22;27892;52.378;13.122;2023-06-14T04:29:10;18.30;55.60
42227;DHT22;27892;52.378;13.122;2023-06-14T04:31:40;18.40;55.20
42227;DHT22;27892;52.378;13.122;2023-06-14T04:34:06;18.50;55.10
42227;DHT22;27892;52.378;13.122;2023-06-14T04:36:33;18.40;54.70
42227;DHT22;27892;52.378;13.122;2023-06-14T04:39:01;18.50;55.20
42227;DHT22;27892;52.378;13.122;2023-06-14T04:41:30;18.70;55.00
42227;DHT22;27892;52.378;13.122;2023-06-14T04:44:00;18.80;54.50
42227;DHT22;27892;52.378;13.122;2023-06-14T04:46:28;18.80;54.50
42227;DHT22;27892;52.378;13.122;2023-06-14T04:48:54;18.90;54.20
42227;DHT22;27892;52.378;13.122;2023-06-14T04:51:20;18.90;53.80
42227;DHT22;27892;52.378;13.122;2023-06-14T04:53:56;19.00;54.00
42227;DHT22;27892;52.378;13.122;2023-06-14T04:56:24;19.10;53.50
42227;DHT22;27892;52.378;13.122;2023-06-14T04:58:51;19.20;53.50
42227;DHT22;27892;52.378;13.122;2023-06-14T05:01:18;19.30;53.50
42227;DHT22;27892;52.378;13.122;2023-06-14T05:03:45;19.50;53.00
42227;DHT22;27892;52.378;13.122;2023-06-14T05:06:14;19.50;52.80
42227;DHT22;27892;52.378;13.122;2023-06-14T05:08:39;19.70;52.90
42227;DHT22;27892;52.378;13.122;2023-06-14T05:11:05;19.90;53.00
42227;DHT22;27892;52.378;13.122;2023-06-14T05:13:31;20.00;52.10
42227;DHT22;27892;52.378;13.122;2023-06-14T05:15:58;20.10;51.70
42227;DHT22;27892;52.378;13.122;2023-06-14T05:18:24;20.20;51.80
42227;DHT22;27892;52.378;13.122;2023-06-14T05:20:51;20.30;51.30
42227;DHT22;27892;52.378;13.122;2023-06-14T05:23:16;20.20;50.30
42227;DHT22;27892;52.378;13.122;2023-06-14T05:25:45;20.30;50.70
42227;DHT22;27892;52.378;13.122;2023-06-14T05:28:12;20.40;50.60
42227;DHT22;27892;52.378;13.122;2023-06-14T05:30:38;20.50;50.60
42227;DHT22;27892;52.378;13.122;2023-06-14T05:33:05;20.70;50.70
42227;DHT22;27892;52.378;13.122;2023-06-14T05:35:31;21.00;50.10
42227;DHT22;27892;52.378;13.122;2023-06-14T05:37:57;21.00;49.70
42227;DHT22;27892;52.378;13.122;2023-06-14T05:40:22;21.00;49.10
42227;DHT22;27892;52.378;13.122;2023-06-14T05:42:48;21.00;49.00
42227;DHT22;27892;52.378;13.122;2023-06-14T05:45:14;20.90;48.30
42227;DHT22;27892;52.378;13.122;2023-06-14T05:47:41;20.80;48.10
42227;DHT22;27892;52.378;13.122;2023-06-14T05:50:07;20.70;48.20
42227;DHT22;27892;52.378;13.122;2023-06-14T05:52:34;20.80;48.20
42227;DHT22;27892;52.378;13.122;2023-06-14T05:55:00;20.80;48.20
42227;DHT22;27892;52.378;13.122;2023-06-14T05:57:26;20.90;48.30
42227;DHT22;27892;52.378;13.122;2023-06-14T05:59:52;21.10;48.10
42227;DHT22;27892;52.378;13.122;2023-06-14T06:02:18;21.20;48.10
42227;DHT22;27892;52.378;13.122;2023-06-14T06:04:43;21.20;47.70
42227;DHT22;27892;52.378;13.122;2023-06-14T06:07:09;21.30;47.60
42227;DHT22;27892;52.378;13.122;2023-06-14T06:09:35;21.40;47.30
42227;DHT22;27892;52.378;13.122;2023-06-14T06:12:01;21.50;47.20
42227;DHT22;27892;52.378;13.122;2023-06-14T06:14:26;21.50;47.10
42227;DHT22;27892;52.378;13.122;2023-06-14T06:16:54;21.60;47.40
42227;DHT22;27892;52.378;13.122;2023-06-14T06:19:19;21.70;48.20
42227;DHT22;27892;52.378;13.122;2023-06-14T06:21:45;21.70;47.00
42227;DHT22;27892;52.378;13.122;2023-06-14T06:24:11;21.80;47.50
42227;DHT22;27892;52.378;13.122;2023-06-14T06:26:37;21.90;47.10
42227;DHT22;27892;52.378;13.122;2023-06-14T06:29:03;21.90;46.50
42227;DHT22;27892;52.378;13.122;2023-06-14T06:31:28;22.00;46.50
42227;DHT22;27892;52.378;13.122;2023-06-14T06:33:54;22.00;46.60
42227;DHT22;27892;52.378;13.122;2023-06-14T06:36:20;22.00;46.40
42227;DHT22;27892;52.378;13.122;2023-06-14T06:38:47;22.10;46.30
42227;DHT22;27892;52.378;13.122;2023-06-14T06:41:13;22.00;46.10
42227;DHT22;27892;52.378;13.122;2023-06-14T06:43:38;21.90;45.80
42227;DHT22;27892;52.378;13.122;2023-06-14T06:46:04;21.80;45.70
42227;DHT22;27892;52.378;13.122;2023-06-14T06:48:30;21.80;46.00
42227;DHT22;27892;52.378;13.122;2023-06-14T06:50:56;21.80;45.70
42227;DHT22;27892;52.378;13.122;2023-06-14T06:53:21;21.70;45.00
42227;DHT22;27892;52.378;13.122;2023-06-14T06:55:48;21.70;45.60
42227;DHT22;27892;52.378;13.122;2023-06-14T06:58:14;21.60;45.30
42227;DHT22;27892;52.378;13.122;2023-06-14T07:00:39;21.70;45.40
42227;DHT22;27892;52.378;13.122;2023-06-14T07:03:06;21.70;45.10
42227;DHT22;27892;52.378;13.122;2023-06-14T07:05:32;21.60;44.90
42227;DHT22;27892;52.378;13.122;2023-06-14T07:07:58;21.70;45.20
42227;DHT22;27892;52.378;13.122;2023-06-14T07:10:24;21.70;46.00
42227;DHT22;27892;52.378;13.122;2023-06-14T07:12:52;21.80;46.20
42227;DHT22;27892;52.378;13.122;2023-06-14T07:15:18;21.90;46.10
42227;DHT22;27892;52.378;13.122;2023-06-14T07:17:44;22.00;46.50
42227;DHT22;27892;52.378;13.122;2023-06-14T07:20:10;22.10;46.70
42227;DHT22;27892;52.378;13.122;2023-06-14T07:22:42;22.20;46.60
42227;DHT22;27892;52.378;13.122;2023-06-14T07:25:12;22.30;46.80
42227;DHT22;27892;52.378;13.122;2023-06-14T07:27:43;22.50;46.60
42227;DHT22;27892;52.378;13.122;2023-06-14T07:30:09;22.60;46.30
42227;DHT22;27892;52.378;13.122;2023-06-14T07:32:36;22.60;46.50
42227;DHT22;27892;52.378;13.122;2023-06-14T07:35:02;22.80;46.70
42227;DHT22;27892;52.378;13.122;2023-06-14T07:37:28;22.90;46.50
42227;DHT22;27892;52.378;13.122;2023-06-14T07:39:54;23.10;45.90
42227;DHT22;27892;52.378;13.122;2023-06-14T07:42:19;23.40;46.10
42227;DHT22;27892;52.378;13.122;2023-06-14T07:44:45;23.90;45.80
42227;DHT22;27892;52.378;13.122;2023-06-14T07:47:11;24.50;44.90
42227;DHT22;27892;52.378;13.122;2023-06-14T07:49:36;24.90;44.30
42227;DHT22;27892;52.378;13.122;2023-06-14T07:52:03;25.40;43.50
42227;DHT22;27892;52.378;13.122;2023-06-14T07:54:30;25.60;42.70
42227;DHT22;27892;52.378;13.122;2023-06-14T07:56:57;25.90;42.80
42227;DHT22;27892;52.378;13.122;2023-06-14T07:59:24;26.10;42.10
42227;DHT22;27892;52.378;13.122;2023-06-14T08:01:49;26.20;41.40
42227;DHT22;27892;52.378;13.122;2023-06-14T08:04:15;26.10;41.80
42227;DHT22;27892;52.378;13.122;2023-06-14T08:06:41;25.90;41.30
42227;DHT22;27892;52.378;13.122;2023-06-14T08:09:10;25.70;41.70
42227;DHT22;27892;52.378;13.122;2023-06-14T08:11:36;25.60;41.80
42227;DHT22;27892;52.378;13.122;2023-06-14T08:14:02;25.40;41.50
42227;DHT22;27892;52.378;13.122;2023-06-14T08:16:28;25.30;42.30
42227;DHT22;27892;52.378;13.122;2023-06-14T08:18:54;25.10;42.70
42227;DHT22;27892;52.378;13.122;2023-06-14T08:21:20;24.90;43.90
42227;DHT22;27892;52.378;13.122;2023-06-14T08:23:46;24.90;43.10
42227;DHT22;27892;52.378;13.122;2023-06-14T08:26:11;24.80;43.90
42227;DHT22;27892;52.378;13.122;2023-06-14T08:28:37;24.80;43.40
42227;DHT22;27892;52.378;13.122;2023-06-14T08:31:03;24.70;43.00
42227;DHT22;27892;52.378;13.122;2023-06-14T08:33:28;24.70;43.50
42227;DHT22;27892;52.378;13.122;2023-06-14T08:35:54;24.70;43.90
42227;DHT22;27892;52.378;13.122;2023-06-14T08:38:20;24.70;43.70
42227;DHT22;27892;52.378;13.122;2023-06-14T08:40:50;24.70;43.80
42227;DHT22;27892;52.378;13.122;2023-06-14T08:43:16;24.70;43.40
42227;DHT22;27892;52.378;13.122;2023-06-14T08:45:42;24.70;43.00
42227;DHT22;27892;52.378;13.122;2023-06-14T08:48:08;24.60;42.40
42227;DHT22;27892;52.378;13.122;2023-06-14T08:50:34;24.40;42.30
42227;DHT22;27892;52.378;13.122;2023-06-14T08:53:02;24.50;43.10
42227;DHT22;27892;52.378;13.122;2023-06-14T08:55:29;24.50;42.40
42227;DHT22;27892;52.378;13.122;2023-06-14T08:57:57;24.50;42.00
42227;DHT22;27892;52.378;13.122;2023-06-14T09:00:27;24.60;43.20
42227;DHT22;27892;52.378;13.122;2023-06-14T09:02:53;24.90;42.80
42227;DHT22;27892;52.378;13.122;2023-06-14T09:05:28;24.90;41.50
42227;DHT22;27892;52.378;13.122;2023-06-14T09:07:54;25.00;42.20
42227;DHT22;27892;52.378;13.122;2023-06-14T09:10:22;25.20;42.00
42227;DHT22;27892;52.378;13.122;2023-06-14T09:12:48;25.40;41.10
42227;DHT22;27892;52.378;13.122;2023-06-14T09:15:14;25.60;40.50
42227;DHT22;27892;52.378;13.122;2023-06-14T09:17:40;26.00;40.00
42227;DHT22;27892;52.378;13.122;2023-06-14T09:20:07;26.50;39.50
42227;DHT22;27892;52.378;13.122;2023-06-14T09:22:44;26.60;38.70
42227;DHT22;27892;52.378;13.122;2023-06-14T09:25:10;27.10;39.30
42227;DHT22;27892;52.378;13.122;2023-06-14T09:27:37;27.70;39.00
42227;DHT22;27892;52.378;13.122;2023-06-14T09:30:06;28.00;37.20
42227;DHT22;27892;52.378;13.122;2023-06-14T09:32:38;28.20;36.70
42227;DHT22;27892;52.378;13.122;2023-06-14T09:35:07;28.20;36.30
42227;DHT22;27892;52.378;13.122;2023-06-14T09:37:34;28.10;35.40
42227;DHT22;27892;52.378;13.122;2023-06-14T09:40:00;27.70;35.90
42227;DHT22;27892;52.378;13.122;2023-06-14T09:42:26;27.30;36.00
42227;DHT22;27892;52.378;13.122;2023-06-14T09:44:54;27.10;37.30
42227;DHT22;27892;52.378;13.122;2023-06-14T09:47:21;27.10;37.30
42227;DHT22;27892;52.378;13.122;2023-06-14T09:49:47;27.20;37.30
42227;DHT22;27892;52.378;13.122;2023-06-14T09:52:19;27.10;37.00
42227;DHT22;27892;52.378;13.122;2023-06-14T09:54:46;27.10;36.80
42227;DHT22;27892;52.378;13.122;2023-06-14T09:57:14;27.10;36.80
42227;DHT22;27892;52.378;13.122;2023-06-14T09:59:45;27.00;36.60
42227;DHT22;27892;52.378;13.122;2023-06-14T10:02:25;27.00;37.50
42227;DHT22;27892;52.378;13.122;2023-06-14T10:05:02;27.00;36.40
42227;DHT22;27892;52.378;13.122;2023-06-14T10:07:33;27.10;36.20
42227;DHT22;27892;52.378;13.122;2023-06-14T10:10:00;26.90;36.20
42227;DHT22;27892;52.378;13.122;2023-06-14T10:12:26;27.00;36.60
42227;DHT22;27892;52.378;13.122;2023-06-14T10:14:53;26.70;36.10
42227;DHT22;27892;52.378;13.122;2023-06-14T10:17:46;26.70;37.30
42227;DHT22;27892;52.378;13.122;2023-06-14T10:23:10;27.00;36.70
42227;DHT22;27892;52.378;13.122;2023-06-14T10:25:37;27.10;36.60
42227;DHT22;27892;52.378;13.122;2023-06-14T10:28:19;27.00;36.10
42227;DHT22;27892;52.378;13.122;2023-06-14T10:31:05;27.10;36.50
42227;DHT22;27892;52.378;13.122;2023-06-14T10:33:35;27.30;36.90
42227;DHT22;27892;52.378;13.122;2023-06-14T10:36:31;27.40;36.50
42227;DHT22;27892;52.378;13.122;2023-06-14T10:39:06;27.60;35.60
42227;DHT22;27892;52.378;13.122;2023-06-14T10:41:51;27.70;36.20
42227;DHT22;27892;52.378;13.122;2023-06-14T10:46:52;28.00;34.30
42227;DHT22;27892;52.378;13.122;2023-06-14T10:49:19;27.80;34.50
42227;DHT22;27892;52.378;13.122;2023-06-14T10:51:49;27.80;34.00
42227;DHT22;27892;52.378;13.122;2023-06-14T10:54:16;27.70;34.80
42227;DHT22;27892;52.378;13.122;2023-06-14T10:56:49;27.80;34.60
42227;DHT22;27892;52.378;13.122;2023-06-14T10:59:17;27.40;33.50
42227;DHT22;27892;52.378;13.122;2023-06-14T11:04:49;27.20;34.00
42227;DHT22;27892;52.378;13.122;2023-06-14T11:10:23;27.20;34.70
42227;DHT22;27892;52.378;13.122;2023-06-14T11:12:53;27.30;35.20
42227;DHT22;27892;52.378;13.122;2023-06-14T11:15:20;27.60;35.90
42227;DHT22;27892;52.378;13.122;2023-06-14T11:17:52;27.60;34.30
42227;DHT22;27892;52.378;13.122;2023-06-14T11:20:25;27.60;34.00
42227;DHT22;27892;52.378;13.122;2023-06-14T11:22:52;27.40;34.10
42227;DHT22;27892;52.378;13.122;2023-06-14T11:25:18;27.60;34.80
42227;DHT22;27892;52.378;13.122;2023-06-14T11:27:44;27.80;34.10
42227;DHT22;27892;52.378;13.122;2023-06-14T11:30:10;27.90;33.90
42227;DHT22;27892;52.378;13.122;2023-06-14T11:32:37;28.00;33.50
42227;DHT22;27892;52.378;13.122;2023-06-14T11:35:04;27.80;33.30
42227;DHT22;27892;52.378;13.122;2023-06-14T11:37:33;27.80;33.90
42227;DHT22;27892;52.378;13.122;2023-06-14T11:40:02;27.80;33.40
42227;DHT22;27892;52.378;13.122;2023-06-14T11:42:34;27.70;33.60
42227;DHT22;27892;52.378;13.122;2023-06-14T11:45:00;27.90;33.60
42227;DHT22;27892;52.378;13.122;2023-06-14T11:47:34;28.20;34.10
42227;DHT22;27892;52.378;13.122;2023-06-14T11:50:00;28.40;33.30
42227;DHT22;27892;52.378;13.122;2023-06-14T11:52:26;28.70;33.90
42227;DHT22;27892;52.378;13.122;2023-06-14T11:54:53;29.20;32.20
42227;DHT22;27892;52.378;13.122;2023-06-14T11:57:19;29.10;31.20
42227;DHT22;27892;52.378;13.122;2023-06-14T11:59:45;28.70;30.70
42227;DHT22;27892;52.378;13.122;2023-06-14T12:02:19;28.70;32.30
42227;DHT22;27892;52.378;13.122;2023-06-14T12:04:47;28.90;31.20
42227;DHT22;27892;52.378;13.122;2023-06-14T12:07:17;29.40;31.50
42227;DHT22;27892;52.378;13.122;2023-06-14T12:12:23;29.90;30.10
42227;DHT22;27892;52.378;13.122;2023-06-14T12:14:51;30.00;29.80
42227;DHT22;27892;52.378;13.122;2023-06-14T12:17:18;29.90;29.40
42227;DHT22;27892;52.378;13.122;2023-06-14T12:19:44;29.80;29.80
42227;DHT22;27892;52.378;13.122;2023-06-14T12:22:11;29.70;30.00
42227;DHT22;27892;52.378;13.122;2023-06-14T12:24:37;29.40;29.00
42227;DHT22;27892;52.378;13.122;2023-06-14T12:27:04;29.00;29.30
42227;DHT22;27892;52.378;13.122;2023-06-14T12:29:32;29.00;30.10
42227;DHT22;27892;52.378;13.122;2023-06-14T12:31:59;28.80;29.50
42227;DHT22;27892;52.378;13.122;2023-06-14T12:34:25;28.80;30.80
42227;DHT22;27892;52.378;13.122;2023-06-14T12:36:55;29.00;30.70
42227;DHT22;27892;52.378;13.122;2023-06-14T12:39:21;28.80;30.00
42227;DHT22;27892;52.378;13.122;2023-06-14T12:41:47;28.80;30.10
42227;DHT22;27892;52.378;13.122;2023-06-14T12:44:14;28.80;30.40
42227;DHT22;27892;52.378;13.122;2023-06-14T12:46:41;29.10;31.00
42227;DHT22;27892;52.378;13.122;2023-06-14T12:49:09;29.40;31.40
42227;DHT22;27892;52.378;13.122;2023-06-14T12:51:36;29.70;30.10
42227;DHT22;27892;52.378;13.122;2023-06-14T12:54:03;29.80;29.60
42227;DHT22;27892;52.378;13.122;2023-06-14T12:56:29;29.60;29.30
42227;DHT22;27892;52.378;13.122;2023-06-14T12:58:54;29.60;29.40
42227;DHT22;27892;52.378;13.122;2023-06-14T13:01:20;29.70;29.30
42227;DHT22;27892;52.378;13.122;2023-06-14T13:03:47;30.00;29.80
42227;DHT22;27892;52.378;13.122;2023-06-14T13:06:13;30.20;28.90
42227;DHT22;27892;52.378;13.122;2023-06-14T13:08:39;30.30;27.70
42227;DHT22;27892;52.378;13.122;2023-06-14T13:11:05;30.40;28.10
42227;DHT22;27892;52.378;13.122;2023-06-14T13:13:30;30.50;28.00
42227;DHT22;27892;52.378;13.122;2023-06-14T13:15:56;30.70;28.40
42227;DHT22;27892;52.378;13.122;2023-06-14T13:18:22;30.80;27.70
42227;DHT22;27892;52.378;13.122;2023-06-14T13:20:48;29.70;26.80
42227;DHT22;27892;52.378;13.122;2023-06-14T13:23:15;29.50;27.70
42227;DHT22;27892;52.378;13.122;2023-06-14T13:25:40;29.70;28.10
42227;DHT22;27892;52.378;13.122;2023-06-14T13:28:06;29.90;28.30
42227;DHT22;27892;52.378;13.122;2023-06-14T13:30:33;30.20;28.10
42227;DHT22;27892;52.378;13.122;2023-06-14T13:32:59;29.50;27.50
42227;DHT22;27892;52.378;13.122;2023-06-14T13:35:25;29.80;28.40
42227;DHT22;27892;52.378;13.122;2023-06-14T13:37:51;29.80;28.30
42227;DHT22;27892;52.378;13.122;2023-06-14T13:40:17;30.10;27.70
42227;DHT22;27892;52.378;13.122;2023-06-14T13:42:43;30.00;27.40
42227;DHT22;27892;52.378;13.122;2023-06-14T13:45:11;29.70;26.90
42227;DHT22;27892;52.378;13.122;2023-06-14T13:47:37;29.60;27.80
42227;DHT22;27892;52.378;13.122;2023-06-14T13:50:04;29.60;27.10
42227;DHT22;27892;52.378;13.122;2023-06-14T13:52:30;29.70;27.50
42227;DHT22;27892;52.378;13.122;2023-06-14T13:54:56;30.50;28.20
42227;DHT22;27892;52.378;13.122;2023-06-14T13:57:22;30.70;26.60
42227;DHT22;27892;52.378;13.122;2023-06-14T13:59:48;30.70;26.70
42227;DHT22;27892;52.378;13.122;2023-06-14T14:02:14;30.80;26.70
42227;DHT22;27892;52.378;13.122;2023-06-14T14:04:40;30.70;25.80
42227;DHT22;27892;52.378;13.122;2023-06-14T14:07:06;30.10;26.40
42227;DHT22;27892;52.378;13.122;2023-06-14T14:09:33;30.00;27.30
42227;DHT22;27892;52.378;13.122;2023-06-14T14:12:00;30.60;27.20
42227;DHT22;27892;52.378;13.122;2023-06-14T14:14:27;31.10;25.50
42227;DHT22;27892;52.378;13.122;2023-06-14T14:16:52;31.40;26.00
42227;DHT22;27892;52.378;13.122;2023-06-14T14:19:20;31.70;25.60
42227;DHT22;27892;52.378;13.122;2023-06-14T14:21:46;31.80;24.90
42227;DHT22;27892;52.378;13.122;2023-06-14T14:24:12;31.60;25.20
42227;DHT22;27892;52.378;13.122;2023-06-14T14:26:37;31.00;24.70
42227;DHT22;27892;52.378;13.122;2023-06-14T14:29:03;30.70;25.70
42227;DHT22;27892;52.378;13.122;2023-06-14T14:31:29;30.00;25.70
42227;DHT22;27892;52.378;13.122;2023-06-14T14:33:55;30.10;26.40
42227;DHT22;27892;52.378;13.122;2023-06-14T14:36:20;30.10;26.80
42227;DHT22;27892;52.378;13.122;2023-06-14T14:38:46;30.20;26.60
42227;DHT22;27892;52.378;13.122;2023-06-14T14:41:13;29.80;26.30
42227;DHT22;27892;52.378;13.122;2023-06-14T14:43:38;29.60;26.80
42227;DHT22;27892;52.378;13.122;2023-06-14T14:46:04;29.50;27.60
42227;DHT22;27892;52.378;13.122;2023-06-14T14:48:30;29.50;27.40
42227;DHT22;27892;52.378;13.122;2023-06-14T14:50:56;29.40;27.20
42227;DHT22;27892;52.378;13.122;2023-06-14T14:53:22;29.30;26.90
42227;DHT22;27892;52.378;13.122;2023-06-14T14:55:49;29.30;28.10
42227;DHT22;27892;52.378;13.122;2023-06-14T14:58:14;29.10;27.70
42227;DHT22;27892;52.378;13.122;2023-06-14T15:00:44;29.20;28.20
42227;DHT22;27892;52.378;13.122;2023-06-14T15:03:10;29.20;28.20
42227;DHT22;27892;52.378;13.122;2023-06-14T15:05:35;29.10;28.00
42227;DHT22;27892;52.378;13.122;2023-06-14T15:08:03;29.10;28.30
42227;DHT22;27892;52.378;13.122;2023-06-14T15:10:29;29.10;28.40
42227;DHT22;27892;52.378;13.122;2023-06-14T15:12:54;29.10;28.30
42227;DHT22;27892;52.378;13.122;2023-06-14T15:15:22;28.80;28.30
42227;DHT22;27892;52.378;13.122;2023-06-14T15:17:48;28.70;29.10
42227;DHT22;27892;52.378;13.122;2023-06-14T15:20:13;28.60;28.80
42227;DHT22;27892;52.378;13.122;2023-06-14T15:22:40;28.50;28.90
42227;DHT22;27892;52.378;13.122;2023-06-14T15:25:06;28.50;28.80
42227;DHT22;27892;52.378;13.122;2023-06-14T15:27:32;28.30;28.90
42227;DHT22;27892;52.378;13.122;2023-06-14T15:29:58;28.20;29.10
42227;DHT22;27892;52.378;13.122;2023-06-14T15:32:23;28.10;29.90
42227;DHT22;27892;52.378;13.122;2023-06-14T15:34:49;28.00;29.30
42227;DHT22;27892;52.378;13.122;2023-06-14T15:37:15;27.90;29.50